sim
Sign-in with your pilot id or email,
or register
Callsign
Passwort

Schedule Details

Flight Number: DLH2274 (2)
Departure: Munich Airport (EDDM) at 17:05
Arrival: Nice Cote d'Azur Airport (LFMN) at 18:30
Route: Lufthansa Passenger Schedule. Enter filed route here before submitting Pirep.

Weather Information
Getting current METAR information for EDDM 282120Z 10003KT CAVOK 08/07 Q1015 NOSIG
Getting current METAR information for LFMN 282130Z 34005KT CAVOK 15/10 Q1013 NOSIG

Schedule Frequency

Route Map